sensor_id;sensor_type;location;lat;lon;timestamp;temperature;humidity
5846;DHT22;2949;50.778;7.094;2022-11-18T00:00:42;9.10;99.90
5846;DHT22;2949;50.778;7.094;2022-11-18T00:03:08;9.20;99.90
5846;DHT22;2949;50.778;7.094;2022-11-18T00:05:34;9.10;99.90
5846;DHT22;2949;50.778;7.094;2022-11-18T00:07:59;9.10;99.90
5846;DHT22;2949;50.778;7.094;2022-11-18T00:10:25;9.20;99.90
5846;DHT22;2949;50.778;7.094;2022-11-18T00:12:50;9.20;99.90
5846;DHT22;2949;50.778;7.094;2022-11-18T00:15:34;9.20;99.90
5846;DHT22;2949;50.778;7.094;2022-11-18T00:18:00;9.20;99.90
5846;DHT22;2949;50.778;7.094;2022-11-18T00:20:25;9.20;99.90
5846;DHT22;2949;50.778;7.094;2022-11-18T00:22:51;9.20;99.90
5846;DHT22;2949;50.778;7.094;2022-11-18T00:25:16;9.10;99.90
5846;DHT22;2949;50.778;7.094;2022-11-18T00:27:42;9.10;99.90
5846;DHT22;2949;50.778;7.094;2022-11-18T00:30:08;9.10;99.90
5846;DHT22;2949;50.778;7.094;2022-11-18T00:32:34;9.10;99.90
5846;DHT22;2949;50.778;7.094;2022-11-18T00:34:59;9.10;99.90
5846;DHT22;2949;50.778;7.094;2022-11-18T00:37:25;9.10;99.90
5846;DHT22;2949;50.778;7.094;2022-11-18T00:39:50;9.00;99.90
5846;DHT22;2949;50.778;7.094;2022-11-18T00:42:16;8.90;99.90
5846;DHT22;2949;50.778;7.094;2022-11-18T00:45:00;8.80;99.90
5846;DHT22;2949;50.778;7.094;2022-11-18T00:47:25;8.70;99.90
5846;DHT22;2949;50.778;7.094;2022-11-18T00:49:51;8.60;99.90
5846;DHT22;2949;50.778;7.094;2022-11-18T00:52:16;8.50;99.90
5846;DHT22;2949;50.778;7.094;2022-11-18T00:54:42;8.40;99.90
5846;DHT22;2949;50.778;7.094;2022-11-18T00:57:07;8.30;99.90
5846;DHT22;2949;50.778;7.094;2022-11-18T00:59:33;8.30;99.90
5846;DHT22;2949;50.778;7.094;2022-11-18T01:01:58;8.30;99.90
5846;DHT22;2949;50.778;7.094;2022-11-18T01:04:24;8.30;99.90
5846;DHT22;2949;50.778;7.094;2022-11-18T01:06:49;8.30;99.90
5846;DHT22;2949;50.778;7.094;2022-11-18T01:09:15;8.40;99.90
5846;DHT22;2949;50.778;7.094;2022-11-18T01:11:40;8.40;99.90
5846;DHT22;2949;50.778;7.094;2022-11-18T01:14:25;8.40;99.90
5846;DHT22;2949;50.778;7.094;2022-11-18T01:16:53;8.40;99.90
5846;DHT22;2949;50.778;7.094;2022-11-18T01:19:19;8.50;99.90
5846;DHT22;2949;50.778;7.094;2022-11-18T01:21:45;8.40;99.90
5846;DHT22;2949;50.778;7.094;2022-11-18T01:24:10;8.30;99.90
5846;DHT22;2949;50.778;7.094;2022-11-18T01:26:36;8.30;99.90
5846;DHT22;2949;50.778;7.094;2022-11-18T01:29:01;8.30;99.90
5846;DHT22;2949;50.778;7.094;2022-11-18T01:31:27;8.30;99.90
5846;DHT22;2949;50.778;7.094;2022-11-18T01:33:52;8.20;99.90
5846;DHT22;2949;50.778;7.094;2022-11-18T01:36:21;8.20;99.90
5846;DHT22;2949;50.778;7.094;2022-11-18T01:38:47;8.30;99.90
5846;DHT22;2949;50.778;7.094;2022-11-18T01:41:13;8.30;99.90
5846;DHT22;2949;50.778;7.094;2022-11-18T01:46:52;8.30;99.90
5846;DHT22;2949;50.778;7.094;2022-11-18T01:49:18;8.30;99.90
5846;DHT22;2949;50.778;7.094;2022-11-18T01:51:48;8.40;99.90
5846;DHT22;2949;50.778;7.094;2022-11-18T01:54:32;8.40;99.90
5846;DHT22;2949;50.778;7.094;2022-11-18T01:57:02;8.40;99.90
5846;DHT22;2949;50.778;7.094;2022-11-18T01:59:31;8.40;99.90
5846;DHT22;2949;50.778;7.094;2022-11-18T02:02:02;8.40;99.90
5846;DHT22;2949;50.778;7.094;2022-11-18T02:04:30;8.50;99.90
5846;DHT22;2949;50.778;7.094;2022-11-18T02:06:56;8.50;99.90
5846;DHT22;2949;50.778;7.094;2022-11-18T02:09:22;8.50;99.90
5846;DHT22;2949;50.778;7.094;2022-11-18T02:11:47;8.60;99.90
5846;DHT22;2949;50.778;7.094;2022-11-18T02:14:37;8.60;99.90
5846;DHT22;2949;50.778;7.094;2022-11-18T02:17:27;8.60;99.90
5846;DHT22;2949;50.778;7.094;2022-11-18T02:20:22;8.60;99.90
5846;DHT22;2949;50.778;7.094;2022-11-18T02:31:19;8.70;99.90
5846;DHT22;2949;50.778;7.094;2022-11-18T02:34:08;8.70;99.90
5846;DHT22;2949;50.778;7.094;2022-11-18T02:36:52;8.70;99.90
5846;DHT22;2949;50.778;7.094;2022-11-18T02:39:31;8.60;99.90
5846;DHT22;2949;50.778;7.094;2022-11-18T02:41:58;8.60;99.90
5846;DHT22;2949;50.778;7.094;2022-11-18T02:44:26;8.60;99.90
5846;DHT22;2949;50.778;7.094;2022-11-18T02:46:56;8.60;99.90
5846;DHT22;2949;50.778;7.094;2022-11-18T02:49:32;8.60;99.90
5846;DHT22;2949;50.778;7.094;2022-11-18T02:52:00;8.60;99.90
5846;DHT22;2949;50.778;7.094;2022-11-18T02:54:28;8.60;99.90
5846;DHT22;2949;50.778;7.094;2022-11-18T02:56:54;8.60;99.90
5846;DHT22;2949;50.778;7.094;2022-11-18T02:59:20;8.50;99.90
5846;DHT22;2949;50.778;7.094;2022-11-18T03:01:46;8.50;99.90
5846;DHT22;2949;50.778;7.094;2022-11-18T03:04:13;8.50;99.90
5846;DHT22;2949;50.778;7.094;2022-11-18T03:06:49;8.50;99.90
5846;DHT22;2949;50.778;7.094;2022-11-18T03:09:28;8.50;99.90
5846;DHT22;2949;50.778;7.094;2022-11-18T03:12:21;8.50;99.90
5846;DHT22;2949;50.778;7.094;2022-11-18T03:15:02;8.60;99.90
5846;DHT22;2949;50.778;7.094;2022-11-18T03:22:54;8.70;99.90
5846;DHT22;2949;50.778;7.094;2022-11-18T03:25:33;8.70;99.90
5846;DHT22;2949;50.778;7.094;2022-11-18T03:28:22;8.60;99.90
5846;DHT22;2949;50.778;7.094;2022-11-18T03:30:58;8.60;99.90
5846;DHT22;2949;50.778;7.094;2022-11-18T03:33:31;8.60;99.90
5846;DHT22;2949;50.778;7.094;2022-11-18T03:36:01;8.60;99.90
5846;DHT22;2949;50.778;7.094;2022-11-18T03:38:30;8.50;99.90
5846;DHT22;2949;50.778;7.094;2022-11-18T03:41:00;8.50;99.90
5846;DHT22;2949;50.778;7.094;2022-11-18T03:43:33;8.50;99.90
5846;DHT22;2949;50.778;7.094;2022-11-18T03:46:06;8.60;99.90
5846;DHT22;2949;50.778;7.094;2022-11-18T03:48:53;8.60;99.90
5846;DHT22;2949;50.778;7.094;2022-11-18T03:51:27;8.60;99.90
5846;DHT22;2949;50.778;7.094;2022-11-18T03:53:59;8.60;99.90
5846;DHT22;2949;50.778;7.094;2022-11-18T03:56:30;8.70;99.90
5846;DHT22;2949;50.778;7.094;2022-11-18T03:59:05;8.70;99.90
5846;DHT22;2949;50.778;7.094;2022-11-18T04:01:55;8.70;99.90
5846;DHT22;2949;50.778;7.094;2022-11-18T04:04:20;8.70;99.90
5846;DHT22;2949;50.778;7.094;2022-11-18T04:06:49;8.80;99.90
5846;DHT22;2949;50.778;7.094;2022-11-18T04:09:32;8.80;99.90
5846;DHT22;2949;50.778;7.094;2022-11-18T04:12:07;8.80;99.90
5846;DHT22;2949;50.778;7.094;2022-11-18T04:14:37;8.80;99.90
5846;DHT22;2949;50.778;7.094;2022-11-18T04:17:14;8.80;99.90
5846;DHT22;2949;50.778;7.094;2022-11-18T04:19:41;8.80;99.90
5846;DHT22;2949;50.778;7.094;2022-11-18T04:22:09;8.80;99.90
5846;DHT22;2949;50.778;7.094;2022-11-18T04:24:34;8.80;99.90
5846;DHT22;2949;50.778;7.094;2022-11-18T04:27:01;8.70;99.90
5846;DHT22;2949;50.778;7.094;2022-11-18T04:29:27;8.70;99.90
5846;DHT22;2949;50.778;7.094;2022-11-18T04:31:53;8.70;99.90
5846;DHT22;2949;50.778;7.094;2022-11-18T04:34:18;8.70;99.90
5846;DHT22;2949;50.778;7.094;2022-11-18T04:36:44;8.70;99.90
5846;DHT22;2949;50.778;7.094;2022-11-18T04:39:10;8.70;99.90
5846;DHT22;2949;50.778;7.094;2022-11-18T04:41:35;8.70;99.90
5846;DHT22;2949;50.778;7.094;2022-11-18T04:44:20;8.70;99.90
5846;DHT22;2949;50.778;7.094;2022-11-18T04:46:46;8.60;99.90
5846;DHT22;2949;50.778;7.094;2022-11-18T04:49:13;8.60;99.90
5846;DHT22;2949;50.778;7.094;2022-11-18T04:51:43;8.60;99.90
5846;DHT22;2949;50.778;7.094;2022-11-18T04:54:09;8.50;99.90
5846;DHT22;2949;50.778;7.094;2022-11-18T04:56:35;8.50;99.90
5846;DHT22;2949;50.778;7.094;2022-11-18T04:59:02;8.40;99.90
5846;DHT22;2949;50.778;7.094;2022-11-18T05:01:28;8.30;99.90
5846;DHT22;2949;50.778;7.094;2022-11-18T05:03:55;8.20;99.90
5846;DHT22;2949;50.778;7.094;2022-11-18T05:06:21;8.10;99.90
5846;DHT22;2949;50.778;7.094;2022-11-18T05:08:47;8.00;99.90
5846;DHT22;2949;50.778;7.094;2022-11-18T05:11:12;7.90;99.90
5846;DHT22;2949;50.778;7.094;2022-11-18T05:13:56;7.80;99.90
5846;DHT22;2949;50.778;7.094;2022-11-18T05:16:22;7.80;99.90
5846;DHT22;2949;50.778;7.094;2022-11-18T05:18:48;7.70;99.90
5846;DHT22;2949;50.778;7.094;2022-11-18T05:21:13;7.60;99.90
5846;DHT22;2949;50.778;7.094;2022-11-18T05:23:38;7.60;99.90
5846;DHT22;2949;50.778;7.094;2022-11-18T05:26:05;7.50;99.90
5846;DHT22;2949;50.778;7.094;2022-11-18T05:28:31;7.50;99.90
5846;DHT22;2949;50.778;7.094;2022-11-18T05:30:57;7.40;99.90
5846;DHT22;2949;50.778;7.094;2022-11-18T05:33:23;7.40;99.90
5846;DHT22;2949;50.778;7.094;2022-11-18T05:35:48;7.40;99.90
5846;DHT22;2949;50.778;7.094;2022-11-18T05:38:14;7.40;99.90
5846;DHT22;2949;50.778;7.094;2022-11-18T05:40:41;7.50;99.90
5846;DHT22;2949;50.778;7.094;2022-11-18T05:43:08;7.60;99.90
5846;DHT22;2949;50.778;7.094;2022-11-18T05:45:38;7.70;99.90
5846;DHT22;2949;50.778;7.094;2022-11-18T05:48:04;7.70;99.90
5846;DHT22;2949;50.778;7.094;2022-11-18T05:50:32;7.80;99.90
5846;DHT22;2949;50.778;7.094;2022-11-18T05:52:58;7.80;99.90
5846;DHT22;2949;50.778;7.094;2022-11-18T05:56:13;7.90;99.90
5846;DHT22;2949;50.778;7.094;2022-11-18T05:58:14;8.00;99.90
5846;DHT22;2949;50.778;7.094;2022-11-18T06:00:40;8.10;99.90
5846;DHT22;2949;50.778;7.094;2022-11-18T06:03:16;8.10;99.90
5846;DHT22;2949;50.778;7.094;2022-11-18T06:05:43;8.10;99.90
5846;DHT22;2949;50.778;7.094;2022-11-18T06:08:10;8.20;99.90
5846;DHT22;2949;50.778;7.094;2022-11-18T06:10:37;8.20;99.90
5846;DHT22;2949;50.778;7.094;2022-11-18T06:13:07;8.10;99.90
5846;DHT22;2949;50.778;7.094;2022-11-18T06:15:38;8.10;99.90
5846;DHT22;2949;50.778;7.094;2022-11-18T06:20:37;8.10;99.90
5846;DHT22;2949;50.778;7.094;2022-11-18T06:23:04;8.10;99.90
5846;DHT22;2949;50.778;7.094;2022-11-18T06:25:29;8.10;99.90
5846;DHT22;2949;50.778;7.094;2022-11-18T06:27:58;8.00;99.90
5846;DHT22;2949;50.778;7.094;2022-11-18T06:30:24;8.00;99.90
5846;DHT22;2949;50.778;7.094;2022-11-18T06:32:50;8.00;99.90
5846;DHT22;2949;50.778;7.094;2022-11-18T06:35:15;7.90;99.90
5846;DHT22;2949;50.778;7.094;2022-11-18T06:37:41;8.00;99.90
5846;DHT22;2949;50.778;7.094;2022-11-18T06:40:07;8.00;99.90
5846;DHT22;2949;50.778;7.094;2022-11-18T06:42:33;8.00;99.90
5846;DHT22;2949;50.778;7.094;2022-11-18T06:45:17;8.00;99.90
5846;DHT22;2949;50.778;7.094;2022-11-18T06:47:42;8.10;99.90
5846;DHT22;2949;50.778;7.094;2022-11-18T06:50:08;8.10;99.90
5846;DHT22;2949;50.778;7.094;2022-11-18T06:52:34;8.10;99.90
5846;DHT22;2949;50.778;7.094;2022-11-18T06:54:59;8.10;99.90
5846;DHT22;2949;50.778;7.094;2022-11-18T06:57:25;8.10;99.90
5846;DHT22;2949;50.778;7.094;2022-11-18T06:59:50;8.10;99.90
5846;DHT22;2949;50.778;7.094;2022-11-18T07:02:16;8.10;99.90
5846;DHT22;2949;50.778;7.094;2022-11-18T07:04:43;8.10;99.90
5846;DHT22;2949;50.778;7.094;2022-11-18T07:07:09;8.10;99.90
5846;DHT22;2949;50.778;7.094;2022-11-18T07:09:35;8.20;99.90
5846;DHT22;2949;50.778;7.094;2022-11-18T07:12:01;8.20;99.90
5846;DHT22;2949;50.778;7.094;2022-11-18T07:14:26;8.20;99.90
5846;DHT22;2949;50.778;7.094;2022-11-18T07:16:52;8.30;99.90
5846;DHT22;2949;50.778;7.094;2022-11-18T07:19:18;8.30;99.90
5846;DHT22;2949;50.778;7.094;2022-11-18T07:21:43;8.30;99.90
5846;DHT22;2949;50.778;7.094;2022-11-18T07:24:12;8.40;99.90
5846;DHT22;2949;50.778;7.094;2022-11-18T07:26:38;8.40;99.90
5846;DHT22;2949;50.778;7.094;2022-11-18T07:29:04;8.50;99.90
5846;DHT22;2949;50.778;7.094;2022-11-18T07:31:30;8.50;99.90
5846;DHT22;2949;50.778;7.094;2022-11-18T07:33:56;8.50;99.90
5846;DHT22;2949;50.778;7.094;2022-11-18T07:36:25;8.60;99.90
5846;DHT22;2949;50.778;7.094;2022-11-18T07:38:51;8.60;99.90
5846;DHT22;2949;50.778;7.094;2022-11-18T07:41:19;8.70;99.90
5846;DHT22;2949;50.778;7.094;2022-11-18T07:43:46;8.70;99.90
5846;DHT22;2949;50.778;7.094;2022-11-18T07:48:38;8.90;99.90
5846;DHT22;2949;50.778;7.094;2022-11-18T07:51:04;8.90;99.90
5846;DHT22;2949;50.778;7.094;2022-11-18T07:53:30;9.00;99.90
5846;DHT22;2949;50.778;7.094;2022-11-18T07:55:56;9.00;99.90
5846;DHT22;2949;50.778;7.094;2022-11-18T07:58:21;9.10;99.90
5846;DHT22;2949;50.778;7.094;2022-11-18T08:00:47;9.10;99.90
5846;DHT22;2949;50.778;7.094;2022-11-18T08:03:12;9.10;99.90
5846;DHT22;2949;50.778;7.094;2022-11-18T08:05:38;9.20;99.90
5846;DHT22;2949;50.778;7.094;2022-11-18T08:08:03;9.30;99.90
5846;DHT22;2949;50.778;7.094;2022-11-18T08:10:29;9.40;99.90
5846;DHT22;2949;50.778;7.094;2022-11-18T08:12:55;9.90;99.90
5846;DHT22;2949;50.778;7.094;2022-11-18T08:15:21;10.30;99.90
5846;DHT22;2949;50.778;7.094;2022-11-18T08:17:47;10.40;99.90
5846;DHT22;2949;50.778;7.094;2022-11-18T08:20:12;10.40;99.90
5846;DHT22;2949;50.778;7.094;2022-11-18T08:22:39;10.30;99.90
5846;DHT22;2949;50.778;7.094;2022-11-18T08:25:05;10.30;99.90
5846;DHT22;2949;50.778;7.094;2022-11-18T08:27:31;10.20;99.90
5846;DHT22;2949;50.778;7.094;2022-11-18T08:29:56;10.20;99.90
5846;DHT22;2949;50.778;7.094;2022-11-18T08:32:22;10.20;99.90
5846;DHT22;2949;50.778;7.094;2022-11-18T08:34:48;10.20;99.90
5846;DHT22;2949;50.778;7.094;2022-11-18T08:37:14;10.20;99.90
5846;DHT22;2949;50.778;7.094;2022-11-18T08:39:42;10.20;99.90
5846;DHT22;2949;50.778;7.094;2022-11-18T08:42:09;10.20;99.90
5846;DHT22;2949;50.778;7.094;2022-11-18T08:44:35;10.30;99.90
5846;DHT22;2949;50.778;7.094;2022-11-18T08:47:00;10.30;99.90
5846;DHT22;2949;50.778;7.094;2022-11-18T08:49:26;10.30;99.90
5846;DHT22;2949;50.778;7.094;2022-11-18T08:51:52;10.40;99.90
5846;DHT22;2949;50.778;7.094;2022-11-18T08:54:17;10.40;99.90
5846;DHT22;2949;50.778;7.094;2022-11-18T08:56:43;10.60;99.90
5846;DHT22;2949;50.778;7.094;2022-11-18T08:59:08;10.60;99.90
5846;DHT22;2949;50.778;7.094;2022-11-18T09:01:37;10.70;99.90
5846;DHT22;2949;50.778;7.094;2022-11-18T09:04:06;11.00;99.90
5846;DHT22;2949;50.778;7.094;2022-11-18T09:06:31;11.50;99.90
5846;DHT22;2949;50.778;7.094;2022-11-18T09:08:59;11.80;99.90
5846;DHT22;2949;50.778;7.094;2022-11-18T09:11:25;12.30;99.90
5846;DHT22;2949;50.778;7.094;2022-11-18T09:13:52;12.90;99.90
5846;DHT22;2949;50.778;7.094;2022-11-18T09:16:18;14.80;99.90
5846;DHT22;2949;50.778;7.094;2022-11-18T09:18:44;16.70;99.90
5846;DHT22;2949;50.778;7.094;2022-11-18T09:21:09;18.10;99.90
5846;DHT22;2949;50.778;7.094;2022-11-18T09:23:38;19.00;99.90
5846;DHT22;2949;50.778;7.094;2022-11-18T09:26:07;19.10;99.90
5846;DHT22;2949;50.778;7.094;2022-11-18T09:28:33;18.90;99.90
5846;DHT22;2949;50.778;7.094;2022-11-18T09:31:09;18.40;99.90
5846;DHT22;2949;50.778;7.094;2022-11-18T09:33:36;17.90;99.90
5846;DHT22;2949;50.778;7.094;2022-11-18T09:36:10;17.70;99.90
5846;DHT22;2949;50.778;7.094;2022-11-18T09:38:36;17.60;99.90
5846;DHT22;2949;50.778;7.094;2022-11-18T09:47:30;17.30;99.90
5846;DHT22;2949;50.778;7.094;2022-11-18T09:50:09;16.80;99.90
5846;DHT22;2949;50.778;7.094;2022-11-18T09:52:42;16.80;99.90
5846;DHT22;2949;50.778;7.094;2022-11-18T09:55:13;17.20;99.90
5846;DHT22;2949;50.778;7.094;2022-11-18T09:57:49;17.20;99.90
5846;DHT22;2949;50.778;7.094;2022-11-18T10:00:24;16.50;99.90
5846;DHT22;2949;50.778;7.094;2022-11-18T10:03:01;15.70;99.90
5846;DHT22;2949;50.778;7.094;2022-11-18T10:05:30;15.30;99.90
5846;DHT22;2949;50.778;7.094;2022-11-18T10:08:05;15.50;99.90
5846;DHT22;2949;50.778;7.094;2022-11-18T10:10:50;16.00;99.90
5846;DHT22;2949;50.778;7.094;2022-11-18T10:13:25;16.50;99.90
5846;DHT22;2949;50.778;7.094;2022-11-18T10:16:16;16.90;99.90
5846;DHT22;2949;50.778;7.094;2022-11-18T10:19:03;16.80;99.90
5846;DHT22;2949;50.778;7.094;2022-11-18T10:21:46;16.90;99.90
5846;DHT22;2949;50.778;7.094;2022-11-18T10:24:16;17.70;99.90
5846;DHT22;2949;50.778;7.094;2022-11-18T10:26:43;19.00;99.90
5846;DHT22;2949;50.778;7.094;2022-11-18T10:29:08;20.30;99.90
5846;DHT22;2949;50.778;7.094;2022-11-18T10:31:44;21.00;99.90
5846;DHT22;2949;50.778;7.094;2022-11-18T10:34:17;21.50;99.90
5846;DHT22;2949;50.778;7.094;2022-11-18T10:36:43;21.80;99.90
5846;DHT22;2949;50.778;7.094;2022-11-18T10:39:21;22.10;99.90
5846;DHT22;2949;50.778;7.094;2022-11-18T10:42:02;22.00;98.90
5846;DHT22;2949;50.778;7.094;2022-11-18T10:49:39;21.50;98.60
5846;DHT22;2949;50.778;7.094;2022-11-18T10:52:10;21.40;99.90
5846;DHT22;2949;50.778;7.094;2022-11-18T10:54:36;21.30;99.90
5846;DHT22;2949;50.778;7.094;2022-11-18T10:57:22;21.10;99.70
5846;DHT22;2949;50.778;7.094;2022-11-18T10:59:54;20.20;99.60
5846;DHT22;2949;50.778;7.094;2022-11-18T11:02:29;19.10;99.90
5846;DHT22;2949;50.778;7.094;2022-11-18T11:04:57;18.00;99.90
5846;DHT22;2949;50.778;7.094;2022-11-18T11:07:31;17.10;99.90
5846;DHT22;2949;50.778;7.094;2022-11-18T11:12:42;15.40;99.90
5846;DHT22;2949;50.778;7.094;2022-11-18T11:18:02;14.60;99.90
5846;DHT22;2949;50.778;7.094;2022-11-18T11:20:51;14.30;99.90
5846;DHT22;2949;50.778;7.094;2022-11-18T11:23:16;14.30;99.90
5846;DHT22;2949;50.778;7.094;2022-11-18T11:25:56;14.30;99.90
5846;DHT22;2949;50.778;7.094;2022-11-18T11:36:50;15.30;99.90
5846;DHT22;2949;50.778;7.094;2022-11-18T11:58:59;14.20;99.90
5846;DHT22;2949;50.778;7.094;2022-11-18T12:01:45;14.00;99.90
5846;DHT22;2949;50.778;7.094;2022-11-18T12:04:26;13.80;99.90
5846;DHT22;2949;50.778;7.094;2022-11-18T12:06:53;13.70;99.90
5846;DHT22;2949;50.778;7.094;2022-11-18T12:20:38;14.00;99.90
5846;DHT22;2949;50.778;7.094;2022-11-18T12:28:28;13.80;99.90
5846;DHT22;2949;50.778;7.094;2022-11-18T12:33:44;14.10;99.90
5846;DHT22;2949;50.778;7.094;2022-11-18T12:36:31;14.10;99.90
5846;DHT22;2949;50.778;7.094;2022-11-18T12:44:29;14.10;99.90
5846;DHT22;2949;50.778;7.094;2022-11-18T12:46:58;14.10;99.90
5846;DHT22;2949;50.778;7.094;2022-11-18T12:51:51;13.80;99.90
5846;DHT22;2949;50.778;7.094;2022-11-18T12:54:27;13.80;99.90
5846;DHT22;2949;50.778;7.094;2022-11-18T12:56:56;13.90;99.90
5846;DHT22;2949;50.778;7.094;2022-11-18T12:59:34;14.00;99.90
5846;DHT22;2949;50.778;7.094;2022-11-18T13:02:22;14.20;99.90
5846;DHT22;2949;50.778;7.094;2022-11-18T13:05:18;14.30;99.90
5846;DHT22;2949;50.778;7.094;2022-11-18T13:07:48;14.50;99.90
5846;DHT22;2949;50.778;7.094;2022-11-18T13:10:38;14.70;99.90
5846;DHT22;2949;50.778;7.094;2022-11-18T13:13:05;14.80;99.90
5846;DHT22;2949;50.778;7.094;2022-11-18T13:15:41;14.90;99.90
5846;DHT22;2949;50.778;7.094;2022-11-18T13:18:25;14.90;99.90
5846;DHT22;2949;50.778;7.094;2022-11-18T13:20:56;14.80;99.90
5846;DHT22;2949;50.778;7.094;2022-11-18T13:23:31;14.70;99.90
5846;DHT22;2949;50.778;7.094;2022-11-18T13:26:25;14.50;99.90
5846;DHT22;2949;50.778;7.094;2022-11-18T13:29:16;14.20;99.90
5846;DHT22;2949;50.778;7.094;2022-11-18T13:32:23;14.00;99.90
5846;DHT22;2949;50.778;7.094;2022-11-18T13:34:50;14.00;99.90
5846;DHT22;2949;50.778;7.094;2022-11-18T13:37:20;14.00;99.90
5846;DHT22;2949;50.778;7.094;2022-11-18T13:39:47;14.10;99.90
5846;DHT22;2949;50.778;7.094;2022-11-18T13:42:19;14.10;99.90
5846;DHT22;2949;50.778;7.094;2022-11-18T13:44:56;14.30;99.90
5846;DHT22;2949;50.778;7.094;2022-11-18T13:47:34;14.50;99.90
5846;DHT22;2949;50.778;7.094;2022-11-18T13:55:20;14.40;99.90
5846;DHT22;2949;50.778;7.094;2022-11-18T13:57:59;14.50;99.90
5846;DHT22;2949;50.778;7.094;2022-11-18T14:00:28;14.40;99.90
5846;DHT22;2949;50.778;7.094;2022-11-18T14:03:01;14.30;99.90
5846;DHT22;2949;50.778;7.094;2022-11-18T14:05:27;14.30;99.90
5846;DHT22;2949;50.778;7.094;2022-11-18T14:08:19;14.20;99.90
5846;DHT22;2949;50.778;7.094;2022-11-18T14:10:47;14.00;99.90
5846;DHT22;2949;50.778;7.094;2022-11-18T14:13:36;13.80;99.90
5846;DHT22;2949;50.778;7.094;2022-11-18T14:18:45;13.40;99.90
5846;DHT22;2949;50.778;7.094;2022-11-18T14:21:11;13.20;99.90
5846;DHT22;2949;50.778;7.094;2022-11-18T14:23:41;13.00;99.90
5846;DHT22;2949;50.778;7.094;2022-11-18T14:26:07;12.90;99.90
5846;DHT22;2949;50.778;7.094;2022-11-18T14:28:35;12.70;99.90
5846;DHT22;2949;50.778;7.094;2022-11-18T14:33:29;12.60;99.90
5846;DHT22;2949;50.778;7.094;2022-11-18T14:36:01;12.50;99.90
5846;DHT22;2949;50.778;7.094;2022-11-18T14:41:07;12.30;99.90
5846;DHT22;2949;50.778;7.094;2022-11-18T14:43:33;12.20;99.90
5846;DHT22;2949;50.778;7.094;2022-11-18T14:46:01;12.10;99.90
5846;DHT22;2949;50.778;7.094;2022-11-18T14:48:28;12.00;99.90
5846;DHT22;2949;50.778;7.094;2022-11-18T14:50:55;11.90;99.90
5846;DHT22;2949;50.778;7.094;2022-11-18T14:53:21;11.80;99.90
5846;DHT22;2949;50.778;7.094;2022-11-18T14:55:49;11.80;99.90
5846;DHT22;2949;50.778;7.094;2022-11-18T14:58:15;11.70;99.90
5846;DHT22;2949;50.778;7.094;2022-11-18T15:00:42;11.60;99.90
5846;DHT22;2949;50.778;7.094;2022-11-18T15:03:08;11.60;99.90
5846;DHT22;2949;50.778;7.094;2022-11-18T15:05:34;11.60;99.90
5846;DHT22;2949;50.778;7.094;2022-11-18T15:08:00;11.50;99.90
5846;DHT22;2949;50.778;7.094;2022-11-18T15:10:26;11.40;99.90
5846;DHT22;2949;50.778;7.094;2022-11-18T15:12:51;11.40;99.90
5846;DHT22;2949;50.778;7.094;2022-11-18T15:15:17;11.30;99.90
5846;DHT22;2949;50.778;7.094;2022-11-18T15:17:43;11.30;99.90
5846;DHT22;2949;50.778;7.094;2022-11-18T15:20:13;11.20;99.90
5846;DHT22;2949;50.778;7.094;2022-11-18T15:22:40;11.20;99.90
5846;DHT22;2949;50.778;7.094;2022-11-18T15:25:06;11.10;99.90
5846;DHT22;2949;50.778;7.094;2022-11-18T15:27:32;11.00;99.90
5846;DHT22;2949;50.778;7.094;2022-11-18T15:29:58;11.00;99.90
5846;DHT22;2949;50.778;7.094;2022-11-18T15:32:23;10.90;99.90
5846;DHT22;2949;50.778;7.094;2022-11-18T15:34:49;10.90;99.90
5846;DHT22;2949;50.778;7.094;2022-11-18T15:37:15;10.80;99.90
5846;DHT22;2949;50.778;7.094;2022-11-18T15:39:40;10.90;99.90
5846;DHT22;2949;50.778;7.094;2022-11-18T15:42:06;10.80;99.90
5846;DHT22;2949;50.778;7.094;2022-11-18T15:44:31;10.80;99.90
5846;DHT22;2949;50.778;7.094;2022-11-18T15:46:57;10.70;99.90
5846;DHT22;2949;50.778;7.094;2022-11-18T15:49:24;10.70;99.90
5846;DHT22;2949;50.778;7.094;2022-11-18T15:51:50;10.60;99.90
5846;DHT22;2949;50.778;7.094;2022-11-18T15:54:15;10.60;99.90
5846;DHT22;2949;50.778;7.094;2022-11-18T15:56:41;10.60;99.90
5846;DHT22;2949;50.778;7.094;2022-11-18T15:59:11;10.60;99.90
5846;DHT22;2949;50.778;7.094;2022-11-18T16:01:39;10.50;99.90
5846;DHT22;2949;50.778;7.094;2022-11-18T16:04:06;10.50;99.90
5846;DHT22;2949;50.778;7.094;2022-11-18T16:06:32;10.40;99.90
5846;DHT22;2949;50.778;7.094;2022-11-18T16:08:58;10.40;99.90
5846;DHT22;2949;50.778;7.094;2022-11-18T16:11:24;10.40;99.90
5846;DHT22;2949;50.778;7.094;2022-11-18T16:14:10;10.30;99.90
5846;DHT22;2949;50.778;7.094;2022-11-18T16:16:37;10.30;99.90
5846;DHT22;2949;50.778;7.094;2022-11-18T16:19:11;10.30;99.90
5846;DHT22;2949;50.778;7.094;2022-11-18T16:21:40;10.30;99.90
5846;DHT22;2949;50.778;7.094;2022-11-18T16:24:10;10.30;99.90
5846;DHT22;2949;50.778;7.094;2022-11-18T16:26:36;10.20;99.90
5846;DHT22;2949;50.778;7.094;2022-11-18T16:29:02;10.20;99.90
5846;DHT22;2949;50.778;7.094;2022-11-18T16:31:28;10.10;99.90
5846;DHT22;2949;50.778;7.094;2022-11-18T16:34:28;10.10;99.90
5846;DHT22;2949;50.778;7.094;2022-11-18T16:36:57;10.10;99.90
5846;DHT22;2949;50.778;7.094;2022-11-18T16:39:27;10.10;99.90
5846;DHT22;2949;50.778;7.094;2022-11-18T16:41:55;10.10;99.90
5846;DHT22;2949;50.778;7.094;2022-11-18T16:44:21;10.10;99.90
5846;DHT22;2949;50.778;7.094;2022-11-18T16:46:49;10.00;99.90
5846;DHT22;2949;50.778;7.094;2022-11-18T16:49:17;10.00;99.90
5846;DHT22;2949;50.778;7.094;2022-11-18T16:51:47;10.00;99.90
5846;DHT22;2949;50.778;7.094;2022-11-18T16:54:24;10.00;99.90
5846;DHT22;2949;50.778;7.094;2022-11-18T16:56:51;10.00;99.90
5846;DHT22;2949;50.778;7.094;2022-11-18T16:59:19;10.00;99.90
5846;DHT22;2949;50.778;7.094;2022-11-18T17:01:53;9.90;99.90
5846;DHT22;2949;50.778;7.094;2022-11-18T17:04:19;9.90;99.90
5846;DHT22;2949;50.778;7.094;2022-11-18T17:06:46;9.90;99.90
5846;DHT22;2949;50.778;7.094;2022-11-18T17:09:14;9.90;99.90
5846;DHT22;2949;50.778;7.094;2022-11-18T17:11:43;9.90;99.90
5846;DHT22;2949;50.778;7.094;2022-11-18T17:14:09;9.90;99.90
5846;DHT22;2949;50.778;7.094;2022-11-18T17:16:35;9.80;99.90
5846;DHT22;2949;50.778;7.094;2022-11-18T17:19:01;9.80;99.90
5846;DHT22;2949;50.778;7.094;2022-11-18T17:21:28;9.80;99.90
5846;DHT22;2949;50.778;7.094;2022-11-18T17:23:55;9.80;99.90
5846;DHT22;2949;50.778;7.094;2022-11-18T17:26:32;9.80;99.90
5846;DHT22;2949;50.778;7.094;2022-11-18T17:28:58;9.80;99.90
5846;DHT22;2949;50.778;7.094;2022-11-18T17:31:24;9.80;99.90
5846;DHT22;2949;50.778;7.094;2022-11-18T17:33:52;9.70;99.90
5846;DHT22;2949;50.778;7.094;2022-11-18T17:36:20;9.60;99.90
5846;DHT22;2949;50.778;7.094;2022-11-18T17:38:48;9.60;99.90
5846;DHT22;2949;50.778;7.094;2022-11-18T17:41:16;9.50;99.90
5846;DHT22;2949;50.778;7.094;2022-11-18T17:44:02;9.50;99.90
5846;DHT22;2949;50.778;7.094;2022-11-18T17:46:28;9.50;99.90
5846;DHT22;2949;50.778;7.094;2022-11-18T17:48:55;9.50;99.90
5846;DHT22;2949;50.778;7.094;2022-11-18T17:51:22;9.40;99.90
5846;DHT22;2949;50.778;7.094;2022-11-18T17:53:47;9.40;99.90
5846;DHT22;2949;50.778;7.094;2022-11-18T17:56:13;9.40;99.90
5846;DHT22;2949;50.778;7.094;2022-11-18T17:58:39;9.40;99.90
5846;DHT22;2949;50.778;7.094;2022-11-18T18:01:09;9.30;99.90
5846;DHT22;2949;50.778;7.094;2022-11-18T18:03:35;9.20;99.90
5846;DHT22;2949;50.778;7.094;2022-11-18T18:06:04;9.20;99.90
5846;DHT22;2949;50.778;7.094;2022-11-18T18:08:31;9.20;99.90
5846;DHT22;2949;50.778;7.094;2022-11-18T18:11:08;9.20;99.90
5846;DHT22;2949;50.778;7.094;2022-11-18T18:13:36;9.20;99.90